createdAt,value
2019-01-09T00:00:01.637Z,1.7
2019-01-09T00:01:02.097Z,1.7
2019-01-09T00:02:03.243Z,1.6
2019-01-09T00:03:02.762Z,1.6
2019-01-09T00:04:03.030Z,1.6
2019-01-09T00:05:02.868Z,1.6
2019-01-09T00:06:03.065Z,1.6
2019-01-09T00:07:03.477Z,1.6
2019-01-09T00:08:03.628Z,1.6
2019-01-09T00:09:03.492Z,1.6
2019-01-09T00:10:03.570Z,1.6
2019-01-09T00:11:03.562Z,1.6
2019-01-09T00:12:02.523Z,1.6
2019-01-09T00:13:02.939Z,1.7
2019-01-09T00:14:02.660Z,1.6
2019-01-09T00:15:04.552Z,1.6
2019-01-09T00:16:03.404Z,1.6
2019-01-09T00:17:02.736Z,1.6
2019-01-09T00:18:03.704Z,1.6
2019-01-09T00:19:03.456Z,1.6
2019-01-09T00:20:03.332Z,1.6
2019-01-09T00:21:03.241Z,1.6
2019-01-09T00:22:02.939Z,1.6
2019-01-09T00:23:02.891Z,1.6
2019-01-09T00:24:02.690Z,1.6
2019-01-09T00:25:03.603Z,1.6
2019-01-09T00:26:03.491Z,1.6
2019-01-09T00:27:01.793Z,1.5
2019-01-09T00:28:01.938Z,1.5
2019-01-09T00:29:03.307Z,1.4
2019-01-09T00:30:02.986Z,1.4
2019-01-09T00:31:02.545Z,1.4
2019-01-09T00:32:02.777Z,1.4
2019-01-09T00:33:03.406Z,1.4
2019-01-09T00:34:03.359Z,1.4
2019-01-09T00:35:03.526Z,1.4
2019-01-09T00:36:03.533Z,1.4
2019-01-09T00:37:02.504Z,1.5
2019-01-09T00:38:03.639Z,1.4
2019-01-09T00:39:03.440Z,1.5
2019-01-09T00:40:03.300Z,1.5
2019-01-09T00:41:03.289Z,1.6
2019-01-09T00:42:03.297Z,1.6
2019-01-09T00:43:02.690Z,1.6
2019-01-09T00:44:02.745Z,1.6
2019-01-09T00:45:03.084Z,1.6
2019-01-09T00:46:03.092Z,1.6
2019-01-09T00:47:03.061Z,1.6
2019-01-09T00:48:03.246Z,1.6
2019-01-09T00:49:03.314Z,1.6
2019-01-09T00:50:03.533Z,1.7
2019-01-09T00:51:02.572Z,1.6
2019-01-09T00:52:02.865Z,1.7
2019-01-09T00:53:02.844Z,1.7
2019-01-09T00:54:02.241Z,1.7
2019-01-09T00:55:02.371Z,1.7
2019-01-09T00:56:03.255Z,1.7
2019-01-09T00:57:03.093Z,1.7
2019-01-09T00:58:03.147Z,1.7
2019-01-09T00:59:03.442Z,1.6
2019-01-09T01:00:03.322Z,1.6
2019-01-09T01:01:03.466Z,1.6
2019-01-09T01:02:02.903Z,1.6
2019-01-09T01:03:03.363Z,1.6
2019-01-09T01:04:03.215Z,1.6
2019-01-09T01:05:03.079Z,1.6
2019-01-09T01:06:02.521Z,1.6
2019-01-09T01:07:03.508Z,1.6
2019-01-09T01:08:02.612Z,1.6
2019-01-09T01:09:03.576Z,1.6
2019-01-09T01:10:02.741Z,1.6
2019-01-09T01:11:03.064Z,1.6
2019-01-09T01:12:02.734Z,1.6
2019-01-09T01:13:03.148Z,1.6
2019-01-09T01:14:02.867Z,1.6
2019-01-09T01:15:03.360Z,1.6
2019-01-09T01:16:03.325Z,1.5
2019-01-09T01:18:03.006Z,1.5
2019-01-09T01:19:03.103Z,1.5
2019-01-09T01:20:02.971Z,1.6
2019-01-09T01:21:02.324Z,1.5
2019-01-09T01:22:02.049Z,1.6
2019-01-09T01:23:02.981Z,1.6
2019-01-09T01:24:03.199Z,1.5
2019-01-09T01:25:03.423Z,1.6
2019-01-09T01:26:02.953Z,1.6
2019-01-09T01:27:02.664Z,1.6
2019-01-09T01:28:03.358Z,1.6
2019-01-09T01:29:03.431Z,1.6
2019-01-09T01:30:03.266Z,1.6
2019-01-09T01:31:03.176Z,1.6
2019-01-09T01:32:02.887Z,1.6
2019-01-09T01:33:02.734Z,1.6
2019-01-09T01:34:03.474Z,1.6
2019-01-09T01:35:03.598Z,1.6
2019-01-09T01:36:03.317Z,1.6
2019-01-09T01:37:03.101Z,1.6
2019-01-09T01:38:02.974Z,1.6
2019-01-09T01:39:02.808Z,1.6
2019-01-09T01:40:02.841Z,1.6
2019-01-09T01:41:02.669Z,1.6
2019-01-09T01:42:02.753Z,1.6
2019-01-09T01:43:03.190Z,1.5
2019-01-09T01:44:03.412Z,1.5
2019-01-09T01:45:02.931Z,1.5
2019-01-09T01:46:02.596Z,1.5
2019-01-09T01:47:02.629Z,1.4
2019-01-09T01:48:02.869Z,1.4
2019-01-09T01:49:02.752Z,1.4
2019-01-09T01:50:03.277Z,1.4
2019-01-09T01:51:03.148Z,1.4
2019-01-09T01:52:03.147Z,1.4
2019-01-09T01:53:03.579Z,1.4
2019-01-09T01:54:03.325Z,1.4
2019-01-09T01:55:03.074Z,1.4
2019-01-09T01:56:03.670Z,1.4
2019-01-09T01:57:03.079Z,1.5
2019-01-09T01:58:03.052Z,1.4
2019-01-09T01:59:03.156Z,1.5
2019-01-09T02:00:03.138Z,1.5
2019-01-09T02:01:03.512Z,1.5
2019-01-09T02:02:02.715Z,1.5
2019-01-09T02:03:03.308Z,1.5
2019-01-09T02:04:03.566Z,1.5
2019-01-09T02:05:03.083Z,1.5
2019-01-09T02:06:04.397Z,1.5
2019-01-09T02:07:03.678Z,1.4
2019-01-09T02:08:03.264Z,1.4
2019-01-09T02:09:03.446Z,1.5
2019-01-09T02:10:03.372Z,1.5
2019-01-09T02:11:03.105Z,1.4
2019-01-09T02:12:02.910Z,1.4
2019-01-09T02:13:02.792Z,1.5
2019-01-09T02:14:01.998Z,1.5
2019-01-09T02:15:01.631Z,1.5
2019-01-09T02:16:03.023Z,1.4
2019-01-09T02:17:03.103Z,1.5
2019-01-09T02:18:03.219Z,1.5
2019-01-09T02:19:03.071Z,1.5
2019-01-09T02:20:03.106Z,1.5
2019-01-09T02:21:02.910Z,1.5
2019-01-09T02:22:02.692Z,1.5
2019-01-09T02:23:02.968Z,1.5
2019-01-09T02:24:03.247Z,1.5
2019-01-09T02:25:03.134Z,1.5
2019-01-09T02:26:02.806Z,1.5
2019-01-09T02:27:03.418Z,1.5
2019-01-09T02:28:03.059Z,1.5
2019-01-09T02:29:02.973Z,1.5
2019-01-09T02:30:03.430Z,1.5
2019-01-09T02:31:03.006Z,1.5
2019-01-09T02:32:03.216Z,1.5
2019-01-09T02:33:03.654Z,1.5
2019-01-09T02:34:03.449Z,1.5
2019-01-09T02:35:02.840Z,1.5
2019-01-09T02:36:13.964Z,1.5
2019-01-09T02:37:03.059Z,1.5
2019-01-09T02:38:03.145Z,1.5
2019-01-09T02:39:02.879Z,1.5
2019-01-09T02:40:02.890Z,1.5
2019-01-09T02:41:03.017Z,1.5
2019-01-09T02:42:03.259Z,1.5
2019-01-09T02:43:03.577Z,1.5
2019-01-09T04:40:03.489Z,1.1
2019-01-09T04:41:02.626Z,1.1
2019-01-09T04:42:02.669Z,1.1
2019-01-09T04:43:03.616Z,1.1
2019-01-09T04:44:02.906Z,1.1
2019-01-09T04:45:02.552Z,1.1
2019-01-09T04:46:03.603Z,1.1
2019-01-09T04:47:02.938Z,1.1
2019-01-09T04:48:02.996Z,1.1
2019-01-09T04:49:03.091Z,1.1
2019-01-09T04:50:02.926Z,1.1
2019-01-09T04:51:03.477Z,1.1
2019-01-09T04:52:02.749Z,1.1
2019-01-09T04:53:02.852Z,1.1
2019-01-09T04:54:01.972Z,1.1
2019-01-09T04:55:03.496Z,1.1
2019-01-09T04:56:01.866Z,1.1
2019-01-09T04:57:03.044Z,1.1
2019-01-09T04:58:03.233Z,1.1
2019-01-09T04:59:02.950Z,1.1
2019-01-09T05:00:03.585Z,1.1
2019-01-09T05:01:03.191Z,1.1
2019-01-09T05:02:03.256Z,1.1
2019-01-09T05:03:03.286Z,1.1
2019-01-09T05:04:03.066Z,1.1
2019-01-09T05:05:03.390Z,1.1
2019-01-09T05:06:03.435Z,1.1
2019-01-09T05:07:03.698Z,1.1
2019-01-09T05:08:03.668Z,1.1
2019-01-09T05:09:03.687Z,1.1
2019-01-09T05:10:03.372Z,1.2
2019-01-09T05:11:03.270Z,1.2
2019-01-09T05:12:02.943Z,1.2
2019-01-09T05:13:03.195Z,1.2
2019-01-09T05:14:03.196Z,1.2
2019-01-09T05:15:03.327Z,1.2
2019-01-09T05:16:03.216Z,1.2
2019-01-09T05:17:03.122Z,1.2
2019-01-09T05:18:01.758Z,1.1
2019-01-09T05:19:03.657Z,1.1
2019-01-09T05:20:03.421Z,1.1
2019-01-09T05:21:02.649Z,1.1
2019-01-09T05:22:03.640Z,1.1
2019-01-09T05:23:02.655Z,1.1
2019-01-09T05:24:03.549Z,1.1
2019-01-09T05:25:03.247Z,1.1
2019-01-09T05:26:03.174Z,1.1
2019-01-09T05:27:03.463Z,1
2019-01-09T05:28:02.742Z,1.1
2019-01-09T05:29:03.048Z,1
2019-01-09T05:30:03.774Z,1
2019-01-09T05:31:08.128Z,1
2019-01-09T05:32:02.958Z,1
2019-01-09T05:33:03.068Z,1
2019-01-09T05:34:03.124Z,1
2019-01-09T05:35:02.860Z,1
2019-01-09T05:36:03.679Z,0.9
2019-01-09T05:37:10.040Z,1
2019-01-09T05:38:03.654Z,0.9
2019-01-09T05:39:02.759Z,0.9
2019-01-09T05:40:03.863Z,1
2019-01-09T05:41:02.730Z,1
2019-01-09T05:42:02.932Z,0.9
2019-01-09T05:43:03.078Z,1
2019-01-09T05:44:02.141Z,1
2019-01-09T05:45:02.724Z,1
2019-01-09T05:46:03.512Z,1
2019-01-09T05:47:03.090Z,1
2019-01-09T05:48:03.376Z,0.9
2019-01-09T05:49:03.390Z,0.9
2019-01-09T05:50:03.107Z,0.9
2019-01-09T05:51:02.832Z,0.9
2019-01-09T05:52:03.190Z,1
2019-01-09T05:53:03.035Z,1
2019-01-09T05:54:02.946Z,0.9
2019-01-09T05:55:02.846Z,0.9
2019-01-09T05:56:02.803Z,1
2019-01-09T05:57:03.436Z,1
2019-01-09T05:58:03.393Z,0.9
2019-01-09T05:59:04.192Z,0.9
2019-01-09T06:00:03.462Z,0.9
2019-01-09T06:01:03.012Z,1
2019-01-09T06:02:02.922Z,1
2019-01-09T06:03:02.844Z,1
2019-01-09T06:04:02.801Z,1
2019-01-09T06:05:03.264Z,1
2019-01-09T06:06:03.310Z,0.9
2019-01-09T06:07:02.903Z,0.9
2019-01-09T06:08:02.420Z,1
2019-01-09T06:09:01.755Z,1
2019-01-09T06:10:02.265Z,1
2019-01-09T06:11:02.888Z,1
2019-01-09T06:12:03.324Z,1
2019-01-09T06:13:02.758Z,1
2019-01-09T06:14:03.222Z,1
2019-01-09T06:15:03.500Z,0.9
2019-01-09T06:16:03.396Z,0.9
2019-01-09T06:17:03.264Z,1
2019-01-09T06:18:03.740Z,1
2019-01-09T06:19:03.500Z,1
2019-01-09T06:20:03.353Z,1
2019-01-09T06:21:03.198Z,1
2019-01-09T06:22:03.423Z,1
2019-01-09T06:23:03.262Z,0.9
2019-01-09T06:24:03.270Z,0.9
2019-01-09T06:25:03.216Z,1
2019-01-09T06:26:03.264Z,1
2019-01-09T06:27:03.276Z,1
2019-01-09T06:28:03.295Z,1
2019-01-09T06:29:03.478Z,1
2019-01-09T06:30:03.579Z,0.9
2019-01-09T06:31:03.539Z,1
2019-01-09T06:32:03.268Z,1
2019-01-09T06:33:02.917Z,1
2019-01-09T06:34:02.025Z,1
2019-01-09T06:35:02.412Z,1
2019-01-09T06:36:04.124Z,1
2019-01-09T06:37:02.691Z,1
2019-01-09T06:38:03.473Z,1
2019-01-09T06:39:03.024Z,1
2019-01-09T06:40:02.837Z,1
2019-01-09T06:41:02.792Z,1
2019-01-09T06:42:02.983Z,1
2019-01-09T06:43:03.521Z,0.9
2019-01-09T06:44:02.620Z,0.9
2019-01-09T06:45:03.570Z,1
2019-01-09T06:46:02.808Z,1
2019-01-09T06:47:03.355Z,0.9
2019-01-09T06:48:02.815Z,0.9
2019-01-09T06:49:02.914Z,0.9
2019-01-09T06:50:03.138Z,0.9
2019-01-09T06:51:02.929Z,0.8
2019-01-09T06:52:03.370Z,0.7
2019-01-09T06:53:02.630Z,0.7
2019-01-09T06:54:02.906Z,0.6
2019-01-09T06:55:02.343Z,0.6
2019-01-09T06:56:02.981Z,0.6
2019-01-09T06:57:03.099Z,0.6
2019-01-09T06:58:03.225Z,0.6
2019-01-09T06:59:02.643Z,0.5
2019-01-09T07:00:02.654Z,0.5
2019-01-09T07:01:02.749Z,0.5
2019-01-09T07:02:02.980Z,0.5
2019-01-09T07:03:03.036Z,0.5
2019-01-09T07:04:03.439Z,0.4
2019-01-09T07:05:02.861Z,0.4
2019-01-09T07:06:02.683Z,0.4
2019-01-09T07:07:03.565Z,0.4
2019-01-09T07:08:03.171Z,0.4
2019-01-09T07:09:03.227Z,0.4
2019-01-09T07:10:03.212Z,0.4
2019-01-09T07:11:02.848Z,0.4
2019-01-09T07:12:03.428Z,0.4
2019-01-09T07:13:03.625Z,0.4
2019-01-09T07:14:03.549Z,0.4
2019-01-09T07:15:13.861Z,0.3
2019-01-09T07:16:02.866Z,0.3
2019-01-09T07:17:03.763Z,0.3
2019-01-09T07:18:02.629Z,0.3
2019-01-09T07:19:03.668Z,0.3
2019-01-09T07:20:03.276Z,0.3
2019-01-09T07:21:02.774Z,0.3
2019-01-09T07:22:02.586Z,0.3
2019-01-09T07:23:03.715Z,0.3
2019-01-09T07:24:03.065Z,0.3
2019-01-09T07:25:02.871Z,0.3
2019-01-09T07:26:03.476Z,0.3
2019-01-09T07:27:03.237Z,0.3
2019-01-09T07:28:02.893Z,0.3
2019-01-09T07:29:03.405Z,0.3
2019-01-09T07:30:02.801Z,0.3
2019-01-09T07:31:03.015Z,0.3
2019-01-09T07:32:03.453Z,0.3
2019-01-09T07:33:03.469Z,0.3
2019-01-09T07:34:02.727Z,0.3
2019-01-09T07:35:03.302Z,0.3
2019-01-09T07:36:01.973Z,0.3
2019-01-09T07:37:01.558Z,0.4
2019-01-09T07:38:03.418Z,0.3
2019-01-09T07:39:03.014Z,0.4
2019-01-09T07:40:02.866Z,0.4
2019-01-09T07:41:03.506Z,0.4
2019-01-09T07:42:03.160Z,0.4
2019-01-09T07:43:02.985Z,0.3
2019-01-09T07:44:03.431Z,0.4
2019-01-09T07:45:03.633Z,0.4
2019-01-09T07:46:02.966Z,0.4
2019-01-09T07:47:03.466Z,0.4
2019-01-09T07:48:03.428Z,0.4
2019-01-09T07:49:03.124Z,0.4
2019-01-09T07:50:03.304Z,0.4
2019-01-09T07:51:03.069Z,0.4
2019-01-09T07:52:02.598Z,0.4
2019-01-09T07:53:03.445Z,0.4
2019-01-09T07:54:03.333Z,0.4
2019-01-09T07:55:03.370Z,0.4
2019-01-09T07:56:03.328Z,0.4
2019-01-09T07:57:02.811Z,0.4
2019-01-09T07:58:03.331Z,0.4
2019-01-09T07:59:01.753Z,0.4
2019-01-09T08:00:02.934Z,0.4
2019-01-09T08:01:03.326Z,0.4
2019-01-09T08:02:03.030Z,0.4
2019-01-09T08:03:03.314Z,0.4
2019-01-09T08:04:03.370Z,0.4
2019-01-09T08:05:03.614Z,0.4
2019-01-09T08:06:02.572Z,0.4
2019-01-09T08:07:02.744Z,0.4
2019-01-09T08:08:02.803Z,0.4
2019-01-09T08:09:02.753Z,0.4
2019-01-09T08:10:03.467Z,0.5
2019-01-09T08:11:03.281Z,0.5
2019-01-09T08:12:03.402Z,0.5
2019-01-09T08:13:02.765Z,0.5
2019-01-09T08:14:02.630Z,0.5
2019-01-09T08:15:03.370Z,0.5
2019-01-09T08:16:02.941Z,0.5
2019-01-09T08:17:03.325Z,0.6
2019-01-09T08:18:03.434Z,0.6
2019-01-09T08:19:03.531Z,0.6
2019-01-09T08:20:03.199Z,0.6
2019-01-09T08:21:05.951Z,0.6
2019-01-09T08:22:03.525Z,0.6
2019-01-09T08:23:03.377Z,0.6
2019-01-09T08:24:02.369Z,0.6
2019-01-09T08:25:03.261Z,0.6
2019-01-09T08:26:02.762Z,0.6
2019-01-09T08:27:03.198Z,0.6
2019-01-09T08:28:02.723Z,0.6
2019-01-09T08:29:03.284Z,0.6
2019-01-09T08:30:03.166Z,0.6
2019-01-09T08:31:02.810Z,0.6
2019-01-09T08:32:03.761Z,0.6
2019-01-09T08:33:03.451Z,0.6
2019-01-09T08:34:03.625Z,0.6
2019-01-09T08:35:03.531Z,0.7
2019-01-09T08:36:03.394Z,0.7
2019-01-09T08:37:03.214Z,0.7
2019-01-09T08:38:03.439Z,0.7
2019-01-09T08:39:03.151Z,0.6
2019-01-09T08:40:03.260Z,0.7
2019-01-09T08:41:03.468Z,0.7
2019-01-09T08:42:03.442Z,0.7
2019-01-09T08:43:03.036Z,0.7
2019-01-09T08:44:03.060Z,0.7
2019-01-09T08:45:02.648Z,0.7
2019-01-09T08:46:03.101Z,0.7
2019-01-09T08:47:02.945Z,0.7
2019-01-09T08:48:03.334Z,0.8
2019-01-09T08:49:02.859Z,0.8
2019-01-09T08:50:02.782Z,0.8
2019-01-09T08:51:03.072Z,0.8
2019-01-09T08:52:03.310Z,0.8
2019-01-09T08:53:03.520Z,0.8
2019-01-09T08:54:03.058Z,0.8
2019-01-09T08:55:03.354Z,0.8
2019-01-09T08:56:02.895Z,0.8
2019-01-09T08:57:03.493Z,0.8
2019-01-09T08:58:02.964Z,0.8
2019-01-09T08:59:03.478Z,0.9
2019-01-09T09:00:03.368Z,0.9
2019-01-09T09:01:03.505Z,0.9
2019-01-09T09:02:02.680Z,0.9
2019-01-09T09:03:03.443Z,0.9
2019-01-09T09:04:03.351Z,0.9
2019-01-09T09:05:03.547Z,0.9
2019-01-09T09:06:02.627Z,0.9
2019-01-09T09:07:02.917Z,0.9
2019-01-09T09:08:12.612Z,0.9
2019-01-09T09:09:03.467Z,0.9
2019-01-09T09:10:02.979Z,0.9
2019-01-09T09:11:02.812Z,0.9
2019-01-09T09:12:02.602Z,1
2019-01-09T09:13:02.688Z,0.9
2019-01-09T09:14:03.348Z,0.9
2019-01-09T09:15:02.934Z,1
2019-01-09T09:16:03.458Z,0.9
2019-01-09T09:17:03.125Z,0.9
2019-01-09T09:18:03.474Z,1
2019-01-09T09:19:02.959Z,1
2019-01-09T09:20:03.442Z,0.9
2019-01-09T09:21:02.679Z,0.9
2019-01-09T09:22:03.091Z,1
2019-01-09T09:23:02.968Z,1
2019-01-09T09:24:02.618Z,1
2019-01-09T09:25:02.923Z,1
2019-01-09T09:26:03.517Z,1
2019-01-09T09:27:02.710Z,1
2019-01-09T09:28:03.346Z,1
2019-01-09T09:29:02.811Z,0.9
2019-01-09T09:30:03.675Z,0.9
2019-01-09T09:31:03.575Z,0.9
2019-01-09T09:32:02.999Z,1
2019-01-09T09:33:03.089Z,0.9
2019-01-09T09:34:02.933Z,0.9
2019-01-09T09:35:03.640Z,0.9
2019-01-09T09:36:02.589Z,1
2019-01-09T09:37:02.943Z,0.9
2019-01-09T09:38:02.819Z,0.9
2019-01-09T09:39:03.434Z,0.9
2019-01-09T09:40:03.189Z,0.9
2019-01-09T09:41:03.543Z,0.9
2019-01-09T09:42:03.454Z,0.9
2019-01-09T09:43:03.488Z,0.9
2019-01-09T09:44:02.820Z,0.9
2019-01-09T09:45:02.659Z,0.9
2019-01-09T09:46:03.207Z,0.9
2019-01-09T09:47:03.287Z,0.9
2019-01-09T09:48:02.825Z,0.9
2019-01-09T09:49:02.904Z,0.9
2019-01-09T09:50:03.104Z,0.9
2019-01-09T09:51:03.024Z,0.9
2019-01-09T09:52:03.019Z,0.9
2019-01-09T09:53:03.399Z,0.9
2019-01-09T09:54:03.132Z,0.9
2019-01-09T09:55:03.100Z,0.9
2019-01-09T09:56:03.012Z,0.9
2019-01-09T09:57:02.874Z,0.9
2019-01-09T09:58:06.246Z,0.9
2019-01-09T09:59:02.709Z,0.9
2019-01-09T10:00:03.310Z,0.9
2019-01-09T10:01:03.151Z,0.8
2019-01-09T10:02:02.714Z,0.9
2019-01-09T10:03:03.576Z,0.9
2019-01-09T10:04:03.008Z,0.9
2019-01-09T10:05:03.440Z,0.9
2019-01-09T10:06:03.244Z,0.9
2019-01-09T10:07:03.247Z,0.9
2019-01-09T10:08:03.220Z,0.9
2019-01-09T10:09:03.231Z,0.9
2019-01-09T10:10:03.023Z,0.9
2019-01-09T10:11:02.808Z,0.9
2019-01-09T10:12:02.872Z,0.8
2019-01-09T10:13:03.441Z,0.8
2019-01-09T10:14:03.380Z,0.9
2019-01-09T10:15:02.553Z,0.8
2019-01-09T10:16:03.269Z,0.8
2019-01-09T10:17:03.217Z,0.8
2019-01-09T10:18:02.954Z,0.8
2019-01-09T10:19:03.059Z,0.8
2019-01-09T10:20:02.931Z,0.8
2019-01-09T10:21:02.953Z,0.8
2019-01-09T10:22:02.690Z,0.8
2019-01-09T10:23:02.706Z,0.8
2019-01-09T10:24:03.436Z,0.8
2019-01-09T10:25:02.825Z,0.8
2019-01-09T10:26:02.595Z,0.8
2019-01-09T10:27:03.321Z,0.8
2019-01-09T10:28:03.199Z,0.9
2019-01-09T10:29:03.240Z,0.8
2019-01-09T10:30:03.064Z,0.8
2019-01-09T10:31:03.616Z,0.9
2019-01-09T10:32:02.707Z,0.9
2019-01-09T10:33:03.287Z,0.8
2019-01-09T10:34:03.507Z,0.8
2019-01-09T10:35:02.908Z,0.9
2019-01-09T10:36:03.551Z,0.9
2019-01-09T10:37:03.309Z,0.8
2019-01-09T10:38:03.479Z,0.8
2019-01-09T10:39:03.603Z,0.8
2019-01-09T10:40:03.317Z,0.8
2019-01-09T10:41:03.329Z,0.9
2019-01-09T10:42:02.699Z,0.8
2019-01-09T10:43:03.102Z,0.8
2019-01-09T10:44:02.979Z,0.8
2019-01-09T10:45:03.456Z,0.8
2019-01-09T10:46:03.601Z,0.8
2019-01-09T10:47:03.497Z,0.8
2019-01-09T10:48:02.710Z,0.8
2019-01-09T10:49:03.723Z,0.8
2019-01-09T10:50:02.418Z,0.8
2019-01-09T10:51:02.625Z,0.8
2019-01-09T10:52:03.240Z,0.8
2019-01-09T10:53:03.401Z,0.8
2019-01-09T10:54:03.293Z,0.8
2019-01-09T10:55:03.574Z,0.7
2019-01-09T10:56:03.319Z,0.7
2019-01-09T10:57:02.669Z,0.8
2019-01-09T10:58:02.979Z,0.8
2019-01-09T10:59:03.227Z,0.9
2019-01-09T11:00:03.155Z,0.9
2019-01-09T11:01:02.951Z,0.8
2019-01-09T11:02:03.512Z,0.8
2019-01-09T11:03:03.699Z,0.8
2019-01-09T11:04:03.580Z,0.8
2019-01-09T11:05:03.430Z,0.8
2019-01-09T11:06:03.305Z,0.8
2019-01-09T11:07:03.038Z,0.8
2019-01-09T11:08:03.208Z,0.8
2019-01-09T11:09:03.035Z,0.8
2019-01-09T11:10:03.208Z,0.8
2019-01-09T11:11:02.800Z,0.8
2019-01-09T11:12:02.670Z,0.8
2019-01-09T11:13:02.776Z,0.8
2019-01-09T11:14:02.596Z,0.8
2019-01-09T11:15:02.926Z,0.8
2019-01-09T11:16:03.483Z,0.7
2019-01-09T11:17:03.680Z,0.6
2019-01-09T11:18:03.096Z,0.7
2019-01-09T11:19:02.890Z,0.7
2019-01-09T11:20:03.471Z,0.6
2019-01-09T11:21:03.782Z,0.7
2019-01-09T11:22:03.009Z,0.7
2019-01-09T11:23:03.557Z,0.7
2019-01-09T11:24:02.991Z,0.7
2019-01-09T11:25:02.911Z,0.7
2019-01-09T11:26:02.869Z,0.7
2019-01-09T11:27:03.650Z,0.7
2019-01-09T11:28:03.313Z,0.6
2019-01-09T11:29:02.948Z,0.6
2019-01-09T11:30:02.811Z,0.6
2019-01-09T11:31:02.933Z,0.7
2019-01-09T11:32:03.290Z,0.7
2019-01-09T11:33:03.506Z,0.7
2019-01-09T11:34:03.349Z,0.7
2019-01-09T11:35:03.322Z,0.7
2019-01-09T11:36:03.125Z,0.7
2019-01-09T11:37:02.519Z,0.7
2019-01-09T11:38:01.892Z,0.7
2019-01-09T11:39:01.938Z,0.7
2019-01-09T11:40:03.605Z,0.7
2019-01-09T11:41:03.164Z,0.7
2019-01-09T11:42:02.715Z,0.7
2019-01-09T11:43:03.916Z,0.7
2019-01-09T11:44:03.102Z,0.6
2019-01-09T11:45:03.050Z,0.6
2019-01-09T11:46:03.201Z,0.6
2019-01-09T11:47:03.354Z,0.6
2019-01-09T11:48:03.274Z,0.6
2019-01-09T11:49:02.736Z,0.6
2019-01-09T11:50:03.714Z,0.6
2019-01-09T11:51:03.334Z,0.5
2019-01-09T11:52:02.864Z,0.5
2019-01-09T11:53:03.581Z,0.5
2019-01-09T11:54:02.721Z,0.5
2019-01-09T11:55:03.476Z,0.5
2019-01-09T11:56:03.036Z,0.5
2019-01-09T11:57:03.560Z,0.5
2019-01-09T11:58:03.543Z,0.5
2019-01-09T11:59:03.295Z,0.5
2019-01-09T12:00:02.986Z,0.5
2019-01-09T12:01:03.212Z,0.6
2019-01-09T12:02:03.433Z,0.6
2019-01-09T12:03:02.783Z,0.6
2019-01-09T12:04:02.814Z,0.6
2019-01-09T12:05:02.751Z,0.5
2019-01-09T12:06:02.809Z,0.5
2019-01-09T12:07:01.894Z,0.5
2019-01-09T12:08:02.816Z,0.5
2019-01-09T12:09:04.949Z,0.5
2019-01-09T12:10:03.633Z,0.5
2019-01-09T12:11:03.873Z,0.5
2019-01-09T12:12:02.936Z,0.4
2019-01-09T12:13:03.574Z,0.4
2019-01-09T12:14:02.960Z,0.4
2019-01-09T12:15:03.745Z,0.4
2019-01-09T12:16:08.517Z,0.4
2019-01-09T12:17:03.240Z,0.4
2019-01-09T12:18:03.501Z,0.4
2019-01-09T12:19:03.233Z,0.4
2019-01-09T12:20:02.818Z,0.4
2019-01-09T12:21:02.909Z,0.4
2019-01-09T12:22:02.834Z,0.4
2019-01-09T12:23:02.886Z,0.4
2019-01-09T12:24:02.996Z,0.4
2019-01-09T12:25:03.166Z,0.4
2019-01-09T12:26:03.504Z,0.4
2019-01-09T12:27:03.482Z,0.4
2019-01-09T12:28:02.669Z,0.4
2019-01-09T12:29:02.134Z,0.4
2019-01-09T12:30:02.174Z,0.4
2019-01-09T12:31:03.498Z,0.4
2019-01-09T12:32:03.488Z,0.4
2019-01-09T12:33:03.464Z,0.4
2019-01-09T12:34:02.873Z,0.3
2019-01-09T12:35:03.279Z,0.3
2019-01-09T12:36:01.934Z,0.3
2019-01-09T12:37:02.680Z,0.3
2019-01-09T12:38:03.183Z,0.3
2019-01-09T12:39:03.698Z,0.3
2019-01-09T12:40:03.374Z,0.3
2019-01-09T12:41:02.870Z,0.3
2019-01-09T12:42:02.765Z,0.3
2019-01-09T12:43:02.894Z,0.3
2019-01-09T12:44:03.441Z,0.3
2019-01-09T12:45:03.530Z,0.3
2019-01-09T12:46:03.074Z,0.3
2019-01-09T12:47:03.184Z,0.3
2019-01-09T12:48:03.274Z,0.3
2019-01-09T12:49:02.631Z,0.3
2019-01-09T12:50:03.643Z,0.3
2019-01-09T12:51:03.371Z,0.2
2019-01-09T12:52:03.475Z,0.2
2019-01-09T12:53:03.083Z,0.2
2019-01-09T12:54:03.345Z,0.2
2019-01-09T12:55:03.236Z,0.2
2019-01-09T12:56:02.684Z,0.1
2019-01-09T12:57:03.562Z,0.2
2019-01-09T12:58:03.106Z,0.2
2019-01-09T12:59:02.773Z,0.1
2019-01-09T13:00:03.134Z,0.1
2019-01-09T13:01:02.983Z,0.1
2019-01-09T13:02:03.655Z,0.1
2019-01-09T13:03:02.870Z,0.1
2019-01-09T13:04:02.674Z,0.2
2019-01-09T13:05:03.470Z,0.1
2019-01-09T13:06:03.084Z,0.1
2019-01-09T13:07:03.102Z,0.1
2019-01-09T13:08:02.688Z,0.1
2019-01-09T13:09:02.898Z,0.1
2019-01-09T13:10:02.847Z,0.1
2019-01-09T13:11:03.113Z,0.1
2019-01-09T13:12:03.366Z,0.1
2019-01-09T13:13:02.977Z,0.1
2019-01-09T13:14:02.742Z,0.2
2019-01-09T13:15:03.429Z,0.1
2019-01-09T13:16:03.470Z,0.1
2019-01-09T13:17:12.362Z,0.1
2019-01-09T13:18:02.933Z,0.1
2019-01-09T13:19:02.910Z,0.1
2019-01-09T13:20:03.000Z,0
2019-01-09T13:21:02.681Z,0.1
2019-01-09T13:22:02.595Z,0.1
2019-01-09T13:23:03.597Z,0.1
2019-01-09T13:24:02.835Z,0.1
2019-01-09T13:25:03.070Z,0.1
2019-01-09T13:26:03.012Z,0.1
2019-01-09T13:27:02.484Z,0.1
2019-01-09T13:28:03.361Z,0.1
2019-01-09T13:29:02.841Z,0.1
2019-01-09T13:30:02.903Z,0.1
2019-01-09T13:31:02.603Z,0.1
2019-01-09T13:32:02.820Z,0.1
2019-01-09T13:33:03.146Z,0.1
2019-01-09T13:34:03.654Z,0.1
2019-01-09T13:35:02.841Z,0.1
2019-01-09T13:36:02.980Z,0.1
2019-01-09T13:37:03.264Z,0.1
2019-01-09T13:38:02.957Z,0.1
2019-01-09T13:39:02.159Z,0.2
2019-01-09T13:40:02.699Z,0.3
2019-01-09T13:41:02.983Z,0.2
2019-01-09T13:42:03.598Z,0.3
2019-01-09T13:43:02.937Z,0.3
2019-01-09T13:44:03.536Z,0.2
2019-01-09T13:45:03.600Z,0.2
2019-01-09T13:46:03.082Z,0.2
2019-01-09T13:47:03.228Z,0.2
2019-01-09T13:48:03.323Z,0.2
2019-01-09T13:49:03.205Z,0.2
2019-01-09T13:50:02.884Z,0.1
2019-01-09T13:51:03.388Z,0.1
2019-01-09T13:52:02.988Z,0.1
2019-01-09T13:53:03.162Z,0.1
2019-01-09T13:54:02.778Z,0.1
2019-01-09T13:55:03.107Z,0.1
2019-01-09T13:56:03.266Z,0.1
2019-01-09T13:57:02.679Z,0.1
2019-01-09T13:58:03.015Z,0.1
2019-01-09T13:59:02.894Z,0.1
2019-01-09T14:00:02.970Z,0.1
2019-01-09T14:01:03.065Z,0.1
2019-01-09T14:02:02.668Z,0.1
2019-01-09T14:03:02.523Z,0.1
2019-01-09T14:04:02.837Z,0.1
2019-01-09T14:05:03.955Z,0
2019-01-09T14:06:03.240Z,0.1
2019-01-09T14:07:03.593Z,0.1
2019-01-09T14:08:03.472Z,0.1
2019-01-09T14:09:03.190Z,0.1
2019-01-09T14:10:02.913Z,-0.1
2019-01-09T14:11:03.147Z,-0.1
2019-01-09T14:12:03.129Z,0.1
2019-01-09T14:13:02.647Z,0.1
2019-01-09T14:14:03.447Z,0
2019-01-09T14:15:02.763Z,0
2019-01-09T14:16:03.523Z,0
2019-01-09T14:17:03.654Z,-0.1
2019-01-09T14:18:02.888Z,0
2019-01-09T14:19:03.135Z,0
2019-01-09T14:20:03.196Z,-0.1
2019-01-09T14:21:03.478Z,-0.1
2019-01-09T14:22:03.272Z,-0.1
2019-01-09T14:23:03.173Z,-0.1
2019-01-09T14:24:02.731Z,0
2019-01-09T14:25:02.914Z,0
2019-01-09T14:26:02.671Z,-0.1
2019-01-09T14:27:02.859Z,0
2019-01-09T14:28:02.810Z,0
2019-01-09T14:29:03.119Z,0
2019-01-09T14:30:02.967Z,0
2019-01-09T14:31:03.441Z,0
2019-01-09T14:32:01.694Z,0
2019-01-09T14:33:03.142Z,0
2019-01-09T14:34:03.505Z,0
2019-01-09T14:35:02.933Z,0
2019-01-09T14:36:03.433Z,-0.1
2019-01-09T14:37:03.545Z,-0.1
2019-01-09T14:38:03.239Z,0
2019-01-09T14:39:03.155Z,0
2019-01-09T14:40:03.507Z,0
2019-01-09T14:41:02.843Z,0
2019-01-09T14:42:03.324Z,0
2019-01-09T14:43:02.726Z,0
2019-01-09T14:44:03.320Z,-0.1
2019-01-09T14:45:02.813Z,-0.1
2019-01-09T14:46:02.657Z,-0.1
2019-01-09T14:47:03.130Z,-0.1
2019-01-09T14:48:02.036Z,-0.1
2019-01-09T14:49:02.871Z,-0.1
2019-01-09T14:50:01.898Z,-0.1
2019-01-09T14:51:02.007Z,-0.2
2019-01-09T14:52:02.845Z,-0.1
2019-01-09T14:53:03.066Z,-0.1
2019-01-09T14:54:02.928Z,-0.1
2019-01-09T14:55:03.614Z,-0.1
2019-01-09T14:56:03.123Z,-0.1
2019-01-09T14:57:02.587Z,-0.1
2019-01-09T14:58:02.974Z,-0.1
2019-01-09T14:59:03.111Z,-0.1
2019-01-09T15:00:03.418Z,-0.1
2019-01-09T15:01:02.947Z,-0.1
2019-01-09T15:02:02.795Z,-0.1
2019-01-09T15:03:02.820Z,-0.1
2019-01-09T15:04:03.638Z,-0.1
2019-01-09T15:05:02.946Z,-0.2
2019-01-09T15:06:03.245Z,-0.2
2019-01-09T15:07:02.546Z,-0.2
2019-01-09T15:08:03.334Z,-0.2
2019-01-09T15:09:03.010Z,-0.1
2019-01-09T15:10:03.705Z,-0.2
2019-01-09T15:11:02.665Z,-0.2
2019-01-09T15:12:01.861Z,-0.2
2019-01-09T15:13:03.252Z,-0.1
2019-01-09T15:14:03.539Z,-0.2
2019-01-09T15:15:02.865Z,-0.2
2019-01-09T15:16:02.767Z,-0.2
2019-01-09T15:17:03.612Z,-0.2
2019-01-09T15:18:03.212Z,-0.2
2019-01-09T15:19:02.671Z,-0.2
2019-01-09T15:20:03.460Z,-0.2
2019-01-09T15:21:02.802Z,-0.2
2019-01-09T15:22:03.571Z,-0.2
2019-01-09T15:23:03.276Z,-0.2
2019-01-09T15:24:08.913Z,-0.2
2019-01-09T15:25:02.828Z,-0.2
2019-01-09T15:26:02.701Z,-0.2
2019-01-09T15:27:03.458Z,-0.2
2019-01-09T15:28:02.746Z,-0.2
2019-01-09T15:29:02.619Z,-0.2
2019-01-09T15:30:03.121Z,-0.2
2019-01-09T15:31:02.652Z,-0.2
2019-01-09T15:32:02.767Z,-0.2
2019-01-09T15:33:03.218Z,-0.3
2019-01-09T15:34:01.954Z,-0.2
2019-01-09T15:35:03.382Z,-0.2
2019-01-09T15:36:03.118Z,-0.2
2019-01-09T15:37:03.238Z,-0.3
2019-01-09T15:38:02.800Z,-0.3
2019-01-09T15:39:03.298Z,-0.3
2019-01-09T15:40:06.362Z,-0.3
2019-01-09T15:41:02.918Z,-0.3
2019-01-09T15:42:03.443Z,-0.3
2019-01-09T15:43:03.440Z,-0.3
2019-01-09T15:44:02.724Z,-0.3
2019-01-09T15:45:02.970Z,-0.3
2019-01-09T15:46:03.594Z,-0.2